createdAt,value
2022-08-09T00:02:49.029Z,16.10
2022-08-09T00:06:51.627Z,15.80
2022-08-09T00:10:54.792Z,15.80
2022-08-09T00:15:06.259Z,15.90
2022-08-09T00:19:10.411Z,15.30
2022-08-09T00:23:55.257Z,16.10
2022-08-09T00:27:36.314Z,16.10
2022-08-09T00:31:58.281Z,16.20
2022-08-09T00:36:03.216Z,16.10
2022-08-09T00:40:13.519Z,16.00
2022-08-09T00:44:27.675Z,15.90
2022-08-09T00:48:30.877Z,15.80
2022-08-09T00:52:35.333Z,16.00
2022-08-09T00:56:37.530Z,15.80
2022-08-09T01:00:43.523Z,15.90
2022-08-09T01:04:52.661Z,15.90
2022-08-09T01:09:35.917Z,15.90
2022-08-09T01:13:58.567Z,15.90
2022-08-09T01:18:14.222Z,15.90
2022-08-09T01:22:38.202Z,15.50
2022-08-09T01:26:59.229Z,15.40
2022-08-09T01:31:06.112Z,15.60
2022-08-09T01:35:28.225Z,15.80
2022-08-09T01:39:35.745Z,15.80
2022-08-09T01:43:50.162Z,15.80
2022-08-09T01:47:55.441Z,15.70
2022-08-09T01:52:07.447Z,15.80
2022-08-09T01:56:12.401Z,15.80
2022-08-09T02:00:34.496Z,15.80
2022-08-09T02:04:40.649Z,15.90
2022-08-09T02:08:58.807Z,16.00
2022-08-09T02:13:05.313Z,15.90
2022-08-09T02:17:15.337Z,16.00
2022-08-09T02:21:40.599Z,16.00
2022-08-09T02:25:52.457Z,15.90
2022-08-09T02:29:57.368Z,16.00
2022-08-09T02:34:13.761Z,15.90
2022-08-09T02:38:47.542Z,15.60
2022-08-09T02:42:52.939Z,15.60
2022-08-09T02:46:57.445Z,15.70
2022-08-09T02:51:01.793Z,15.70
2022-08-09T02:55:20.118Z,15.80
2022-08-09T02:59:26.394Z,15.90
2022-08-09T03:04:16.738Z,15.90
2022-08-09T03:08:04.597Z,16.00
2022-08-09T03:12:11.329Z,16.00
2022-08-09T03:16:19.189Z,15.90
2022-08-09T03:20:22.182Z,16.00
2022-08-09T03:24:42.147Z,16.10
2022-08-09T03:28:55.109Z,16.10
2022-08-09T03:32:58.869Z,16.30
2022-08-09T03:37:02.455Z,16.20
2022-08-09T03:41:29.928Z,16.10
2022-08-09T03:46:05.422Z,15.90
2022-08-09T03:50:09.957Z,15.80
2022-08-09T03:54:14.861Z,15.90
2022-08-09T03:58:21.139Z,16.20
2022-08-09T04:02:29.046Z,17.20
2022-08-09T04:06:31.114Z,16.30
2022-08-09T04:10:33.315Z,16.20
2022-08-09T04:14:53.195Z,16.30
2022-08-09T04:18:57.561Z,16.30
2022-08-09T04:23:00.075Z,16.30
2022-08-09T04:27:02.028Z,16.40
2022-08-09T04:31:08.551Z,16.50
2022-08-09T04:35:13.451Z,16.60
2022-08-09T04:39:17.432Z,16.80
2022-08-09T04:43:19.638Z,17.00
2022-08-09T04:47:27.268Z,17.20
2022-08-09T04:51:47.172Z,17.30
2022-08-09T04:55:58.077Z,17.30
2022-08-09T05:00:01.098Z,17.30
2022-08-09T05:04:07.048Z,17.40
2022-08-09T05:08:09.133Z,17.50
2022-08-09T05:12:11.230Z,17.70
2022-08-09T05:16:15.062Z,17.70
2022-08-09T05:20:17.084Z,17.70
2022-08-09T05:24:18.976Z,17.90
2022-08-09T05:28:21.990Z,17.90
2022-08-09T05:32:26.448Z,17.80
2022-08-09T05:36:32.023Z,17.90
2022-08-09T05:40:34.878Z,17.90
2022-08-09T05:44:36.735Z,18.10
2022-08-09T05:48:39.936Z,18.00
2022-08-09T05:52:44.356Z,18.10
2022-08-09T05:56:54.837Z,18.20
2022-08-09T06:00:58.391Z,18.50
2022-08-09T06:05:00.359Z,18.90
2022-08-09T06:09:02.620Z,19.10
2022-08-09T06:13:20.150Z,19.20
2022-08-09T06:17:22.683Z,19.40
2022-08-09T06:21:24.629Z,19.60
2022-08-09T06:25:26.812Z,19.70
2022-08-09T06:29:28.722Z,19.90
2022-08-09T06:33:40.923Z,20.00
2022-08-09T06:37:53.087Z,20.10
2022-08-09T06:42:08.549Z,19.90
2022-08-09T06:46:13.144Z,20.30
2022-08-09T06:50:34.963Z,20.50
2022-08-09T06:54:37.454Z,20.70
2022-08-09T07:00:52.109Z,21.10
2022-08-09T07:03:05.894Z,21.60
2022-08-09T07:07:11.873Z,21.90
2022-08-09T07:11:23.474Z,21.90
2022-08-09T07:16:35.300Z,21.80
2022-08-09T07:19:55.141Z,21.80
2022-08-09T07:23:58.433Z,21.90
2022-08-09T07:28:00.495Z,22.20
2022-08-09T07:32:07.435Z,22.80
2022-08-09T07:36:09.610Z,23.80
2022-08-09T07:40:20.098Z,24.40
2022-08-09T07:44:32.819Z,24.50
2022-08-09T07:48:35.303Z,24.50
2022-08-09T07:52:43.067Z,24.70
2022-08-09T07:56:49.141Z,24.80
2022-08-09T08:00:58.847Z,24.80
2022-08-09T08:05:18.570Z,25.30
2022-08-09T08:09:35.469Z,26.40
2022-08-09T08:13:56.297Z,28.00
2022-08-09T08:17:59.281Z,28.90
2022-08-09T08:22:01.660Z,29.90
2022-08-09T08:26:08.054Z,30.20
2022-08-09T08:30:14.039Z,30.70
2022-08-09T08:34:16.193Z,31.10
2022-08-09T08:38:22.832Z,31.60
2022-08-09T08:42:32.047Z,32.20
2022-08-09T08:46:41.308Z,33.10
2022-08-09T08:51:00.184Z,33.40
2022-08-09T08:55:03.943Z,33.60
2022-08-09T08:59:20.004Z,34.20
2022-08-09T09:03:33.108Z,34.70
2022-08-09T09:07:44.680Z,35.30
2022-08-09T09:11:48.037Z,35.40
2022-08-09T09:15:51.542Z,35.10
2022-08-09T09:19:55.298Z,34.90
2022-08-09T09:24:10.326Z,35.70
2022-08-09T09:29:02.135Z,36.00
2022-08-09T09:33:21.295Z,36.10
2022-08-09T09:37:31.800Z,35.90
2022-08-09T09:41:49.077Z,36.40
2022-08-09T09:50:23.170Z,36.80
2022-08-09T09:54:25.435Z,37.30
2022-08-09T09:58:45.555Z,37.40
2022-08-09T10:02:48.110Z,36.80
2022-08-09T10:06:51.981Z,36.30
2022-08-09T10:10:56.180Z,36.20
2022-08-09T10:16:09.187Z,35.70
2022-08-09T10:19:52.014Z,34.70
2022-08-09T10:23:57.237Z,34.90
2022-08-09T10:28:01.811Z,35.10
2022-08-09T10:36:26.527Z,34.50
2022-08-09T10:40:33.676Z,34.10
2022-08-09T10:44:39.881Z,34.20
2022-08-09T10:49:10.401Z,35.00
2022-08-09T10:53:39.491Z,35.50
2022-08-09T10:57:48.762Z,36.10
2022-08-09T11:03:11.675Z,36.30
2022-08-09T11:06:18.575Z,36.50
2022-08-09T11:10:47.083Z,36.00
2022-08-09T11:15:04.353Z,36.20
2022-08-09T11:19:10.585Z,36.10
2022-08-09T11:23:13.729Z,36.40
2022-08-09T11:28:05.274Z,36.90
2022-08-09T11:31:58.619Z,36.60
2022-08-09T11:36:01.497Z,36.20
2022-08-09T11:40:09.137Z,36.20
2022-08-09T11:44:11.196Z,35.70
2022-08-09T11:48:24.859Z,35.40
2022-08-09T11:52:59.138Z,34.70
2022-08-09T11:56:50.231Z,34.90
2022-08-09T12:01:03.619Z,35.10
2022-08-09T12:05:17.824Z,35.10
2022-08-09T12:09:33.679Z,34.40
2022-08-09T12:14:07.571Z,34.10
2022-08-09T12:18:01.963Z,33.80
2022-08-09T12:22:07.143Z,33.60
2022-08-09T12:26:19.590Z,33.30
2022-08-09T12:30:36.891Z,33.20
2022-08-09T12:34:43.032Z,33.00
2022-08-09T12:38:45.133Z,32.50
2022-08-09T12:42:50.468Z,32.40
2022-08-09T12:46:52.920Z,32.60
2022-08-09T12:50:56.146Z,32.40
2022-08-09T12:55:03.188Z,31.70
2022-08-09T12:59:23.025Z,31.40
2022-08-09T13:03:53.724Z,31.50
2022-08-09T13:08:21.292Z,31.00
2022-08-09T13:13:10.825Z,30.90
2022-08-09T13:17:22.077Z,30.60
2022-08-09T13:22:35.772Z,30.50
2022-08-09T13:26:00.884Z,30.50
2022-08-09T13:30:51.016Z,30.40
2022-08-09T13:34:27.446Z,30.20
2022-08-09T13:38:55.624Z,30.00
2022-08-09T13:42:54.422Z,29.80
2022-08-09T13:47:24.323Z,29.60
2022-08-09T13:51:18.377Z,29.40
2022-08-09T13:55:21.102Z,29.10
2022-08-09T13:59:25.371Z,28.80
2022-08-09T14:04:02.713Z,28.10
2022-08-09T14:07:49.465Z,28.10
2022-08-09T14:11:53.761Z,28.20
2022-08-09T14:16:09.942Z,28.10
2022-08-09T14:20:13.159Z,28.00
2022-08-09T14:24:31.925Z,27.90
2022-08-09T14:28:34.144Z,28.00
2022-08-09T14:32:37.757Z,28.00
2022-08-09T14:36:42.823Z,27.70
2022-08-09T14:41:02.364Z,27.70
2022-08-09T14:46:39.141Z,27.80
2022-08-09T14:49:34.545Z,28.00
2022-08-09T14:53:46.873Z,27.90
2022-08-09T14:57:50.638Z,28.10
2022-08-09T15:01:52.581Z,28.00
2022-08-09T15:05:56.794Z,28.00
2022-08-09T15:10:07.892Z,28.10
2022-08-09T15:14:19.222Z,28.20
2022-08-09T15:18:21.332Z,28.30
2022-08-09T15:22:26.094Z,28.10
2022-08-09T15:26:30.662Z,27.90
2022-08-09T15:30:56.501Z,27.70
2022-08-09T15:35:00.263Z,27.40
2022-08-09T15:39:02.366Z,27.30
2022-08-09T15:43:04.289Z,27.00
2022-08-09T15:47:07.145Z,27.10
2022-08-09T15:51:44.557Z,27.10
2022-08-09T15:56:04.631Z,27.10
2022-08-09T16:00:00.340Z,27.20
2022-08-09T16:04:02.344Z,27.00
2022-08-09T16:08:04.516Z,27.00
2022-08-09T16:12:11.462Z,26.50
2022-08-09T16:16:17.178Z,26.60
2022-08-09T16:20:20.746Z,26.80
2022-08-09T16:24:34.328Z,26.80
2022-08-09T16:28:36.344Z,26.80
2022-08-09T16:32:56.975Z,26.70
2022-08-09T16:37:00.143Z,26.70
2022-08-09T16:41:04.305Z,26.70
2022-08-09T16:45:07.995Z,26.40
2022-08-09T16:49:16.814Z,25.90
2022-08-09T16:53:34.217Z,25.90
2022-08-09T16:58:08.101Z,26.10
2022-08-09T17:01:58.280Z,26.00
2022-08-09T17:06:08.549Z,25.70
2022-08-09T17:10:22.470Z,25.50
2022-08-09T17:14:27.075Z,25.40
2022-08-09T17:18:30.832Z,25.40
2022-08-09T17:22:32.928Z,25.10
2022-08-09T17:26:38.319Z,24.90
2022-08-09T17:30:40.715Z,24.60
2022-08-09T17:35:01.116Z,24.40
2022-08-09T17:39:11.546Z,24.10
2022-08-09T17:43:34.022Z,23.90
2022-08-09T17:47:49.918Z,23.50
2022-08-09T17:51:57.277Z,23.10
2022-08-09T17:56:04.716Z,22.90
2022-08-09T18:00:10.661Z,22.60
2022-08-09T18:04:12.766Z,22.40
2022-08-09T18:08:14.712Z,22.30
2022-08-09T18:12:20.124Z,22.20
2022-08-09T18:16:29.466Z,21.90
2022-08-09T18:20:56.207Z,21.80
2022-08-09T18:24:54.821Z,21.80
2022-08-09T18:30:40.708Z,21.60
2022-08-09T18:33:23.021Z,21.50
2022-08-09T18:37:48.567Z,21.30
2022-08-09T18:41:52.925Z,21.20
2022-08-09T18:46:49.542Z,20.30
2022-08-09T18:50:17.504Z,21.10
2022-08-09T18:54:28.263Z,21.10
2022-08-09T18:58:32.309Z,21.00
2022-08-09T19:02:35.399Z,20.90
2022-08-09T19:06:38.447Z,20.80
2022-08-09T19:10:40.894Z,20.70
2022-08-09T19:14:43.482Z,20.60
2022-08-09T19:18:45.876Z,20.40
2022-08-09T19:22:54.101Z,20.30
2022-08-09T19:26:57.347Z,20.30
2022-08-09T19:30:59.659Z,20.20
2022-08-09T19:35:02.410Z,20.10
2022-08-09T19:39:05.532Z,20.20
2022-08-09T19:43:10.272Z,20.00
2022-08-09T19:47:29.658Z,19.80
2022-08-09T19:51:31.986Z,19.40
2022-08-09T19:56:02.147Z,19.40
2022-08-09T20:00:06.651Z,19.30
2022-08-09T20:04:19.740Z,19.30
2022-08-09T20:08:34.889Z,19.40
2022-08-09T20:12:45.539Z,19.30
2022-08-09T20:16:50.294Z,19.20
2022-08-09T20:20:57.427Z,19.00
2022-08-09T20:24:59.339Z,18.90
2022-08-09T20:29:10.120Z,18.80
2022-08-09T20:33:20.686Z,18.70
2022-08-09T20:37:23.280Z,18.50
2022-08-09T20:41:32.316Z,18.30
2022-08-09T20:45:59.221Z,18.20
2022-08-09T20:50:02.525Z,18.20
2022-08-09T20:54:04.716Z,18.10
2022-08-09T20:58:19.827Z,18.10
2022-08-09T21:02:23.663Z,18.00
2022-08-09T21:06:25.698Z,18.00
2022-08-09T21:10:33.405Z,18.00
2022-08-09T21:14:41.559Z,17.90
2022-08-09T21:19:01.831Z,17.80
2022-08-09T21:23:09.219Z,17.60
2022-08-09T21:28:00.875Z,17.50
2022-08-09T21:31:48.641Z,17.50
2022-08-09T21:35:52.796Z,17.50
2022-08-09T21:39:54.874Z,17.50
2022-08-09T21:43:58.075Z,17.40
2022-08-09T21:48:00.790Z,17.30
2022-08-09T21:52:02.732Z,17.30
2022-08-09T21:56:05.529Z,17.20
2022-08-09T22:00:18.146Z,17.20
2022-08-09T22:04:55.063Z,17.20
2022-08-09T22:08:50.130Z,17.00
2022-08-09T22:12:52.316Z,16.90
2022-08-09T22:16:54.276Z,16.90
2022-08-09T22:20:56.192Z,16.90
2022-08-09T22:26:08.493Z,16.90
2022-08-09T22:29:27.030Z,16.90
2022-08-09T22:33:37.444Z,16.80
2022-08-09T22:38:06.694Z,17.00
2022-08-09T22:42:20.902Z,17.00
2022-08-09T22:48:12.119Z,17.00
2022-08-09T22:50:53.172Z,16.90
2022-08-09T22:54:55.210Z,16.80
2022-08-09T22:58:57.719Z,16.80
2022-08-09T23:02:59.670Z,16.90
2022-08-09T23:07:31.034Z,16.90
2022-08-09T23:11:42.096Z,16.80
2022-08-09T23:15:44.028Z,16.80
2022-08-09T23:20:08.376Z,16.80
2022-08-09T23:24:10.470Z,16.70
2022-08-09T23:28:15.280Z,16.60
2022-08-09T23:32:18.108Z,16.40
2022-08-09T23:36:20.027Z,16.40
2022-08-09T23:40:22.068Z,16.40
2022-08-09T23:44:24.015Z,16.30
2022-08-09T23:48:26.087Z,16.40
2022-08-09T23:52:27.995Z,16.40
2022-08-09T23:56:52.173Z,16.40
